createdAt,value
2022-08-23T00:02:23.862Z,26.25
2022-08-23T00:05:07.527Z,26.19
2022-08-23T00:07:42.015Z,26.00
2022-08-23T00:10:11.588Z,25.94
2022-08-23T00:12:39.274Z,25.88
2022-08-23T00:15:08.901Z,25.79
2022-08-23T00:17:36.941Z,25.71
2022-08-23T00:20:08.759Z,25.74
2022-08-23T00:22:37.781Z,25.68
2022-08-23T00:25:07.196Z,25.60
2022-08-23T00:27:33.980Z,25.61
2022-08-23T00:30:01.067Z,25.52
2022-08-23T00:32:31.352Z,25.49
2022-08-23T00:35:00.669Z,25.54
2022-08-23T00:37:29.084Z,25.51
2022-08-23T00:39:55.790Z,25.57
2022-08-23T00:42:42.085Z,25.62
2022-08-23T00:45:32.211Z,25.56
2022-08-23T00:47:59.520Z,25.53
2022-08-23T00:50:26.545Z,25.43
2022-08-23T00:52:59.167Z,25.32
2022-08-23T00:55:27.266Z,25.28
2022-08-23T00:57:54.814Z,25.31
2022-08-23T01:00:22.598Z,25.30
2022-08-23T01:02:51.044Z,25.28
2022-08-23T01:05:19.193Z,25.32
2022-08-23T01:07:52.808Z,25.39
2022-08-23T01:10:33.187Z,25.39
2022-08-23T01:13:14.818Z,25.39
2022-08-23T01:15:47.836Z,25.40
2022-08-23T01:18:17.672Z,25.43
2022-08-23T01:21:13.464Z,25.39
2022-08-23T01:23:43.448Z,25.41
2022-08-23T01:26:11.794Z,25.36
2022-08-23T01:28:40.746Z,25.34
2022-08-23T01:31:09.054Z,25.30
2022-08-23T01:33:38.524Z,25.43
2022-08-23T01:36:09.873Z,25.52
2022-08-23T01:38:38.223Z,25.56
2022-08-23T01:41:09.569Z,25.54
2022-08-23T01:43:37.010Z,25.59
2022-08-23T01:46:14.950Z,25.54
2022-08-23T01:48:41.937Z,25.57
2022-08-23T01:51:09.385Z,25.58
2022-08-23T01:53:36.372Z,25.66
2022-08-23T01:56:05.220Z,25.75
2022-08-23T01:58:36.497Z,25.72
2022-08-23T02:01:04.675Z,25.75
2022-08-23T02:03:34.276Z,25.55
2022-08-23T02:06:01.128Z,25.62
2022-08-23T02:08:46.539Z,25.62
2022-08-23T02:11:16.871Z,25.50
2022-08-23T02:13:46.438Z,25.44
2022-08-23T02:16:25.608Z,25.42
2022-08-23T02:18:56.522Z,25.36
2022-08-23T02:21:24.592Z,25.38
2022-08-23T02:23:51.585Z,25.25
2022-08-23T02:26:19.067Z,25.05
2022-08-23T02:28:50.025Z,24.89
2022-08-23T02:31:16.967Z,24.71
2022-08-23T02:33:46.229Z,24.55
2022-08-23T02:36:14.240Z,24.47
2022-08-23T02:38:41.376Z,24.42
2022-08-23T02:41:09.299Z,24.24
2022-08-23T02:43:40.954Z,24.27
2022-08-23T02:46:08.068Z,24.14
2022-08-23T02:48:36.267Z,24.20
2022-08-23T02:51:07.790Z,24.05
2022-08-23T02:53:35.572Z,23.97
2022-08-23T02:56:06.448Z,23.94
2022-08-23T02:58:47.825Z,23.73
2022-08-23T03:01:30.798Z,23.69
2022-08-23T03:04:08.051Z,23.71
2022-08-23T03:06:36.368Z,23.67
2022-08-23T03:09:05.226Z,23.72
2022-08-23T03:11:32.817Z,23.77
2022-08-23T03:14:01.142Z,23.75
2022-08-23T03:16:28.715Z,23.83
2022-08-23T03:18:55.568Z,23.87
2022-08-23T03:21:22.709Z,23.65
2022-08-23T03:23:50.380Z,23.51
2022-08-23T03:26:17.847Z,23.51
2022-08-23T03:28:45.774Z,23.44
2022-08-23T03:31:15.155Z,23.28
2022-08-23T03:33:52.624Z,23.31
2022-08-23T03:36:20.215Z,23.38
2022-08-23T03:38:56.178Z,23.36
2022-08-23T03:41:23.445Z,23.24
2022-08-23T03:43:50.574Z,23.35
2022-08-23T03:46:24.604Z,23.28
2022-08-23T03:49:00.016Z,23.41
2022-08-23T03:51:31.873Z,23.44
2022-08-23T03:54:01.155Z,23.56
2022-08-23T03:56:29.764Z,23.60
2022-08-23T03:58:58.786Z,23.57
2022-08-23T04:01:28.527Z,23.64
2022-08-23T04:03:59.909Z,23.44
2022-08-23T04:06:29.551Z,23.47
2022-08-23T04:08:56.498Z,23.56
2022-08-23T04:11:23.782Z,23.64
2022-08-23T04:13:57.240Z,23.56
2022-08-23T04:16:24.202Z,23.49
2022-08-23T04:18:51.148Z,23.56
2022-08-23T04:21:22.490Z,23.55
2022-08-23T04:23:49.686Z,23.56
2022-08-23T04:28:44.566Z,23.50
2022-08-23T04:33:42.657Z,23.68
2022-08-23T04:36:12.478Z,23.61
2022-08-23T04:38:39.272Z,23.58
2022-08-23T04:41:26.506Z,23.56
2022-08-23T04:43:56.885Z,23.72
2022-08-23T04:46:24.641Z,23.55
2022-08-23T04:48:54.343Z,23.40
2022-08-23T04:51:22.224Z,23.33
2022-08-23T04:53:49.330Z,23.25
2022-08-23T04:56:35.468Z,23.21
2022-08-23T04:59:03.330Z,23.16
2022-08-23T05:01:31.624Z,23.17
2022-08-23T05:04:00.169Z,23.19
2022-08-23T05:06:28.708Z,23.08
2022-08-23T05:08:55.436Z,23.05
2022-08-23T05:11:22.680Z,23.13
2022-08-23T05:13:49.808Z,23.30
2022-08-23T05:16:17.418Z,23.42
2022-08-23T05:18:53.580Z,23.40
2022-08-23T05:21:22.793Z,23.29
2022-08-23T05:23:50.975Z,23.38
2022-08-23T05:26:23.386Z,23.39
2022-08-23T05:28:50.675Z,23.44
2022-08-23T05:31:23.807Z,23.70
2022-08-23T05:33:57.217Z,23.96
2022-08-23T05:36:31.145Z,24.28
2022-08-23T05:38:58.533Z,24.52
2022-08-23T05:41:37.006Z,24.96
2022-08-23T05:44:06.740Z,25.31
2022-08-23T05:46:34.740Z,25.68
2022-08-23T05:49:30.756Z,26.00
2022-08-23T05:51:58.370Z,26.32
2022-08-23T05:54:29.266Z,26.77
2022-08-23T05:57:31.109Z,27.28
2022-08-23T05:59:57.781Z,27.56
2022-08-23T06:02:24.492Z,27.76
2022-08-23T06:04:55.539Z,28.16
2022-08-23T06:07:24.114Z,28.87
2022-08-23T06:09:50.901Z,29.24
2022-08-23T06:12:18.548Z,29.28
2022-08-23T06:14:45.200Z,29.32
2022-08-23T06:17:11.966Z,29.85
2022-08-23T06:19:38.757Z,30.42
2022-08-23T06:22:31.408Z,30.58
2022-08-23T06:24:58.247Z,30.63
2022-08-23T06:27:42.567Z,30.97
2022-08-23T06:30:11.894Z,31.09
2022-08-23T06:32:46.495Z,31.06
2022-08-23T06:35:39.956Z,31.58
2022-08-23T06:38:22.234Z,32.70
2022-08-23T06:41:12.973Z,33.11
2022-08-23T06:43:52.218Z,33.47
2022-08-23T06:46:33.017Z,33.66
2022-08-23T06:49:00.778Z,33.86
2022-08-23T06:51:32.079Z,34.07
2022-08-23T06:54:21.734Z,34.86
2022-08-23T06:57:06.936Z,35.94
2022-08-23T06:59:51.064Z,36.51
2022-08-23T07:02:44.264Z,36.63
2022-08-23T07:05:35.621Z,36.12
2022-08-23T07:08:11.870Z,35.93
2022-08-23T07:10:39.302Z,36.49
2022-08-23T07:13:06.079Z,37.07
2022-08-23T07:15:32.879Z,36.91
2022-08-23T07:18:00.364Z,36.78
2022-08-23T07:20:29.325Z,36.41
2022-08-23T07:22:56.202Z,36.58
2022-08-23T07:25:23.286Z,36.82
2022-08-23T07:27:55.145Z,36.59
2022-08-23T07:30:22.419Z,36.85
2022-08-23T07:32:50.974Z,36.58
2022-08-23T07:35:22.275Z,36.96
2022-08-23T07:37:51.600Z,37.77
2022-08-23T07:40:20.739Z,37.10
2022-08-23T07:42:49.894Z,37.82
2022-08-23T07:45:17.914Z,38.23
2022-08-23T07:47:50.621Z,38.35
2022-08-23T07:50:18.298Z,37.96
2022-08-23T07:52:46.348Z,38.08
2022-08-23T07:55:14.103Z,38.53
2022-08-23T07:58:09.984Z,39.40
2022-08-23T08:01:11.912Z,40.55
2022-08-23T08:03:46.843Z,41.67
2022-08-23T08:06:33.886Z,42.13
2022-08-23T08:09:01.033Z,41.96
2022-08-23T08:11:34.885Z,42.60
2022-08-23T08:14:08.205Z,43.87
2022-08-23T08:16:41.219Z,44.70
2022-08-23T08:19:11.996Z,44.31
2022-08-23T08:21:57.297Z,44.55
2022-08-23T08:24:44.374Z,44.24
2022-08-23T08:27:12.937Z,45.41
2022-08-23T08:29:40.705Z,45.28
2022-08-23T08:32:08.992Z,45.30
2022-08-23T08:34:41.555Z,45.55
2022-08-23T08:37:09.670Z,46.52
2022-08-23T08:39:36.459Z,46.57
2022-08-23T08:42:07.794Z,47.21
2022-08-23T08:44:58.110Z,47.79
2022-08-23T08:47:40.946Z,48.56
2022-08-23T08:50:16.681Z,47.50
2022-08-23T08:52:54.712Z,48.35
2022-08-23T08:55:47.510Z,48.91
2022-08-23T08:58:28.997Z,48.98
2022-08-23T09:00:56.855Z,50.25
2022-08-23T09:03:26.447Z,50.72
2022-08-23T09:06:05.915Z,51.31
2022-08-23T09:08:41.209Z,51.06
2022-08-23T09:11:22.351Z,51.57
2022-08-23T09:13:53.544Z,51.39
2022-08-23T09:16:38.695Z,51.02
2022-08-23T09:19:06.421Z,52.66
2022-08-23T09:22:02.739Z,53.71
2022-08-23T09:24:31.442Z,53.17
2022-08-23T09:27:09.989Z,51.53
2022-08-23T09:29:39.427Z,51.03
2022-08-23T09:32:27.235Z,50.69
2022-08-23T09:35:06.499Z,50.64
2022-08-23T09:37:47.808Z,51.94
2022-08-23T09:40:34.302Z,53.22
2022-08-23T09:43:27.975Z,53.65
2022-08-23T09:46:01.276Z,53.62
2022-08-23T09:48:43.186Z,53.41
2022-08-23T09:51:31.096Z,53.52
2022-08-23T09:54:21.608Z,54.43
2022-08-23T09:56:57.262Z,55.53
2022-08-23T09:59:27.986Z,55.02
2022-08-23T10:02:04.525Z,54.92
2022-08-23T10:04:37.340Z,55.78
2022-08-23T10:07:25.998Z,56.55
2022-08-23T10:10:12.555Z,56.27
2022-08-23T10:12:39.331Z,55.48
2022-08-23T10:15:09.474Z,53.57
2022-08-23T10:18:07.211Z,53.13
2022-08-23T10:20:56.724Z,54.02
2022-08-23T10:23:55.837Z,54.76
2022-08-23T10:26:35.277Z,55.85
2022-08-23T10:29:28.561Z,56.15
2022-08-23T10:32:21.401Z,56.53
2022-08-23T10:35:49.483Z,56.29
2022-08-23T10:38:28.463Z,56.42
2022-08-23T10:41:22.153Z,55.58
2022-08-23T10:44:24.117Z,54.02
2022-08-23T10:47:15.932Z,53.81
2022-08-23T10:49:44.022Z,54.17
2022-08-23T10:52:17.460Z,55.93
2022-08-23T10:54:59.502Z,56.92
2022-08-23T10:57:34.183Z,54.35
2022-08-23T11:00:11.804Z,54.34
2022-08-23T11:02:56.093Z,56.49
2022-08-23T11:05:30.667Z,56.01
2022-08-23T11:08:11.330Z,56.02
2022-08-23T11:10:39.194Z,55.78
2022-08-23T11:13:21.369Z,56.39
2022-08-23T11:16:07.213Z,56.81
2022-08-23T11:18:36.829Z,57.13
2022-08-23T11:21:26.224Z,58.20
2022-08-23T11:23:58.429Z,58.47
2022-08-23T11:26:26.603Z,56.72
2022-08-23T11:28:56.839Z,55.85
2022-08-23T11:31:27.312Z,57.30
2022-08-23T11:34:04.963Z,55.55
2022-08-23T11:36:34.492Z,56.34
2022-08-23T11:39:09.198Z,56.58
2022-08-23T11:41:56.370Z,57.51
2022-08-23T11:44:35.464Z,57.65
2022-08-23T11:47:06.549Z,57.65
2022-08-23T11:49:57.494Z,56.86
2022-08-23T11:52:37.502Z,56.46
2022-08-23T11:55:07.098Z,56.74
2022-08-23T11:58:05.781Z,54.48
2022-08-23T12:01:11.039Z,55.42
2022-08-23T12:03:59.846Z,55.58
2022-08-23T12:06:58.232Z,52.39
2022-08-23T12:09:25.876Z,49.27
2022-08-23T12:11:55.422Z,46.94
2022-08-23T12:14:31.344Z,45.18
2022-08-23T12:17:05.410Z,44.10
2022-08-23T12:19:40.395Z,44.24
2022-08-23T12:22:52.602Z,45.19
2022-08-23T12:25:22.198Z,45.63
2022-08-23T12:27:55.658Z,45.23
2022-08-23T12:30:29.895Z,44.56
2022-08-23T12:33:30.993Z,43.87
2022-08-23T12:36:16.614Z,43.33
2022-08-23T12:39:19.718Z,42.32
2022-08-23T12:42:11.531Z,42.03
2022-08-23T12:44:38.591Z,41.29
2022-08-23T12:47:24.409Z,41.56
2022-08-23T12:50:32.672Z,41.73
2022-08-23T12:53:27.982Z,42.13
2022-08-23T12:56:07.973Z,42.53
2022-08-23T12:58:38.661Z,42.75
2022-08-23T13:01:20.403Z,42.67
2022-08-23T13:03:51.107Z,42.89
2022-08-23T13:06:34.381Z,43.08
2022-08-23T13:09:07.653Z,42.15
2022-08-23T13:11:38.105Z,41.77
2022-08-23T13:14:24.707Z,40.84
2022-08-23T13:16:52.543Z,40.78
2022-08-23T13:19:31.459Z,40.65
2022-08-23T13:22:21.995Z,40.62
2022-08-23T13:25:24.548Z,40.46
2022-08-23T13:27:46.920Z,40.78
2022-08-23T13:30:14.014Z,40.62
2022-08-23T13:32:52.296Z,40.45
2022-08-23T13:35:29.190Z,40.54
2022-08-23T13:38:00.688Z,40.64
2022-08-23T13:40:32.234Z,40.77
2022-08-23T13:43:09.898Z,40.93
2022-08-23T13:45:46.219Z,40.79
2022-08-23T13:48:33.910Z,40.49
2022-08-23T13:51:24.692Z,40.23
2022-08-23T13:53:53.272Z,40.29
2022-08-23T13:56:21.222Z,40.39
2022-08-23T13:59:01.117Z,40.37
2022-08-23T14:01:29.048Z,40.17
2022-08-23T14:03:56.390Z,39.90
2022-08-23T14:06:23.992Z,39.77
2022-08-23T14:08:51.371Z,39.44
2022-08-23T14:11:18.290Z,39.18
2022-08-23T14:13:47.812Z,39.16
2022-08-23T14:16:40.151Z,39.16
2022-08-23T14:19:54.317Z,39.26
2022-08-23T14:21:57.601Z,39.32
2022-08-23T14:24:26.967Z,39.12
2022-08-23T14:26:54.933Z,39.16
2022-08-23T14:29:23.457Z,39.28
2022-08-23T14:31:51.855Z,39.22
2022-08-23T14:34:19.127Z,39.20
2022-08-23T14:39:32.751Z,38.91
2022-08-23T14:41:59.694Z,38.67
2022-08-23T14:44:31.586Z,38.52
2022-08-23T14:47:00.282Z,38.41
2022-08-23T14:49:27.158Z,38.57
2022-08-23T14:51:54.289Z,38.70
2022-08-23T14:54:24.743Z,38.62
2022-08-23T14:56:53.363Z,38.55
2022-08-23T14:59:20.579Z,38.38
2022-08-23T15:01:49.951Z,38.15
2022-08-23T15:04:19.888Z,38.27
2022-08-23T15:07:14.080Z,38.28
2022-08-23T15:09:34.191Z,38.35
2022-08-23T15:14:48.491Z,38.24
2022-08-23T15:17:15.383Z,38.15
2022-08-23T15:19:42.123Z,37.97
2022-08-23T15:22:21.359Z,37.95
2022-08-23T15:24:49.460Z,38.05
2022-08-23T15:27:17.913Z,38.20
2022-08-23T15:29:44.690Z,38.33
2022-08-23T15:32:12.739Z,38.06
2022-08-23T15:34:45.690Z,38.05
2022-08-23T15:37:14.112Z,37.94
2022-08-23T15:39:42.314Z,37.87
2022-08-23T15:42:09.688Z,37.88
2022-08-23T15:44:36.735Z,37.77
2022-08-23T15:47:05.633Z,37.71
2022-08-23T15:49:36.307Z,37.81
2022-08-23T15:52:04.440Z,37.91
2022-08-23T15:54:31.509Z,37.75
2022-08-23T15:56:58.557Z,37.78
2022-08-23T15:59:25.732Z,37.92
2022-08-23T16:01:52.616Z,37.87
2022-08-23T16:04:19.449Z,37.75
2022-08-23T16:06:46.974Z,37.68
2022-08-23T16:09:24.000Z,37.86
2022-08-23T16:11:51.711Z,37.91
2022-08-23T16:14:18.690Z,37.78
2022-08-23T16:16:48.476Z,37.59
2022-08-23T16:19:16.844Z,37.54
2022-08-23T16:21:45.042Z,37.25
2022-08-23T16:24:11.829Z,37.10
2022-08-23T16:26:41.920Z,37.04
2022-08-23T16:29:10.984Z,36.94
2022-08-23T16:31:39.723Z,36.90
2022-08-23T16:34:09.750Z,36.85
2022-08-23T16:36:37.092Z,36.75
2022-08-23T16:39:05.287Z,36.75
2022-08-23T16:41:32.349Z,36.71
2022-08-23T16:43:59.309Z,36.65
2022-08-23T16:46:26.663Z,36.57
2022-08-23T16:48:53.427Z,36.57
2022-08-23T16:51:20.324Z,36.62
2022-08-23T16:54:01.739Z,36.55
2022-08-23T16:56:31.569Z,36.44
2022-08-23T16:58:58.623Z,36.39
2022-08-23T17:01:26.068Z,36.33
2022-08-23T17:03:52.884Z,36.20
2022-08-23T17:06:19.863Z,36.04
2022-08-23T17:08:46.701Z,35.94
2022-08-23T17:11:16.894Z,35.79
2022-08-23T17:13:44.148Z,35.66
2022-08-23T17:16:11.311Z,35.66
2022-08-23T17:18:38.736Z,35.67
2022-08-23T17:21:06.696Z,35.65
2022-08-23T17:23:33.434Z,35.63
2022-08-23T17:26:06.235Z,35.66
2022-08-23T17:28:32.985Z,35.67
2022-08-23T17:30:59.669Z,35.64
2022-08-23T17:33:26.448Z,35.64
2022-08-23T17:35:53.297Z,35.53
2022-08-23T17:38:20.862Z,35.41
2022-08-23T17:40:47.692Z,35.38
2022-08-23T17:43:14.404Z,35.39
2022-08-23T17:45:47.501Z,35.27
2022-08-23T17:48:16.401Z,35.18
2022-08-23T17:50:43.952Z,35.08
2022-08-23T17:53:11.319Z,34.95
2022-08-23T17:55:39.238Z,34.92
2022-08-23T17:58:08.578Z,34.86
2022-08-23T18:00:39.369Z,34.84
2022-08-23T18:03:06.810Z,34.70
2022-08-23T18:05:34.742Z,34.65
2022-08-23T18:08:01.580Z,34.51
2022-08-23T18:10:29.964Z,34.40
2022-08-23T18:12:57.932Z,34.29
2022-08-23T18:15:24.775Z,34.17
2022-08-23T18:17:52.201Z,34.16
2022-08-23T18:20:23.366Z,34.05
2022-08-23T18:22:50.155Z,33.99
2022-08-23T18:25:17.063Z,33.82
2022-08-23T18:28:03.083Z,33.58
2022-08-23T18:30:30.153Z,33.33
2022-08-23T18:32:57.643Z,33.11
2022-08-23T18:35:25.934Z,33.09
2022-08-23T18:37:54.349Z,32.99
2022-08-23T18:40:21.307Z,33.01
2022-08-23T18:42:48.374Z,32.98
2022-08-23T18:45:15.227Z,32.84
2022-08-23T18:47:41.992Z,32.76
2022-08-23T18:50:11.192Z,32.66
2022-08-23T18:52:38.253Z,32.70
2022-08-23T18:55:06.102Z,32.65
2022-08-23T18:57:33.449Z,32.52
2022-08-23T19:00:00.171Z,32.45
2022-08-23T19:02:27.056Z,32.44
2022-08-23T19:04:54.887Z,32.31
2022-08-23T19:07:21.637Z,32.27
2022-08-23T19:09:48.357Z,32.20
2022-08-23T19:12:15.092Z,32.09
2022-08-23T19:14:41.840Z,32.04
2022-08-23T19:17:08.532Z,31.98
2022-08-23T19:19:35.862Z,31.90
2022-08-23T19:22:03.656Z,31.74
2022-08-23T19:24:30.818Z,31.63
2022-08-23T19:26:57.654Z,31.54
2022-08-23T19:29:24.353Z,31.48
2022-08-23T19:31:51.168Z,31.36
2022-08-23T19:34:20.084Z,31.25
2022-08-23T19:36:51.761Z,31.14
2022-08-23T19:39:26.013Z,30.96
2022-08-23T19:42:02.791Z,30.79
2022-08-23T19:44:32.602Z,30.64
2022-08-23T19:46:59.345Z,30.59
2022-08-23T19:49:26.045Z,30.62
2022-08-23T19:51:53.180Z,30.73
2022-08-23T19:54:20.394Z,30.75
2022-08-23T19:56:50.368Z,30.71
2022-08-23T19:59:30.318Z,30.55
2022-08-23T20:01:58.780Z,30.62
2022-08-23T20:04:27.574Z,30.48
2022-08-23T20:06:55.175Z,30.52
2022-08-23T20:09:22.865Z,30.55
2022-08-23T20:11:52.529Z,30.51
2022-08-23T20:14:20.677Z,30.52
2022-08-23T20:16:48.892Z,30.27
2022-08-23T20:19:16.131Z,30.10
2022-08-23T20:21:43.178Z,30.02
2022-08-23T20:24:11.640Z,29.94
2022-08-23T20:26:43.032Z,29.79
2022-08-23T20:29:17.180Z,29.72
2022-08-23T20:31:53.251Z,29.55
2022-08-23T20:34:20.746Z,29.55
2022-08-23T20:36:48.088Z,29.52
2022-08-23T20:39:19.211Z,29.53
2022-08-23T20:41:48.598Z,29.39
2022-08-23T20:44:15.647Z,29.34
2022-08-23T20:46:44.058Z,29.36
2022-08-23T20:49:11.611Z,29.57
2022-08-23T20:51:38.730Z,29.63
2022-08-23T20:54:09.787Z,29.56
2022-08-23T20:56:37.733Z,29.33
2022-08-23T20:59:06.372Z,29.27
2022-08-23T21:01:33.537Z,29.22
2022-08-23T21:04:01.105Z,29.16
2022-08-23T21:06:30.321Z,29.05
2022-08-23T21:08:59.979Z,29.03
2022-08-23T21:11:28.304Z,28.92
2022-08-23T21:13:56.499Z,28.89
2022-08-23T21:16:24.351Z,28.87
2022-08-23T21:18:54.423Z,28.80
2022-08-23T21:21:24.316Z,28.69
2022-08-23T21:23:51.363Z,28.66
2022-08-23T21:26:18.863Z,28.60
2022-08-23T21:28:45.785Z,28.50
2022-08-23T21:31:15.527Z,28.40
2022-08-23T21:33:44.501Z,28.40
2022-08-23T21:36:12.928Z,28.37
2022-08-23T21:38:39.963Z,28.35
2022-08-23T21:41:11.247Z,28.41
2022-08-23T21:43:39.204Z,28.45
2022-08-23T21:46:07.291Z,28.40
2022-08-23T21:48:34.662Z,28.34
2022-08-23T21:51:01.471Z,28.33
2022-08-23T21:53:28.167Z,28.32
2022-08-23T21:55:54.876Z,28.37
2022-08-23T21:58:21.559Z,28.34
2022-08-23T22:00:48.315Z,28.33
2022-08-23T22:03:15.355Z,28.34
2022-08-23T22:05:44.053Z,28.28
2022-08-23T22:08:14.352Z,28.26
2022-08-23T22:10:48.144Z,28.24
2022-08-23T22:13:26.650Z,28.20
2022-08-23T22:15:53.508Z,28.16
2022-08-23T22:18:20.782Z,28.14
2022-08-23T22:20:47.590Z,28.03
2022-08-23T22:23:14.414Z,27.88
2022-08-23T22:25:41.240Z,27.70
2022-08-23T22:28:08.176Z,27.48
2022-08-23T22:30:34.913Z,27.30
2022-08-23T22:33:01.915Z,27.22
2022-08-23T22:35:28.958Z,27.13
2022-08-23T22:38:12.642Z,27.07
2022-08-23T22:40:51.985Z,27.04
2022-08-23T22:43:20.026Z,26.97
2022-08-23T22:45:55.551Z,27.07
2022-08-23T22:48:22.983Z,27.15
2022-08-23T22:50:49.817Z,27.26
2022-08-23T22:53:17.818Z,27.23
2022-08-23T22:55:51.026Z,27.27
2022-08-23T22:58:18.315Z,27.22
2022-08-23T23:00:46.083Z,27.17
2022-08-23T23:03:12.742Z,27.01
2022-08-23T23:05:39.727Z,26.94
2022-08-23T23:08:25.333Z,26.94
2022-08-23T23:10:52.083Z,26.98
2022-08-23T23:13:20.875Z,26.96
2022-08-23T23:15:47.586Z,26.93
2022-08-23T23:18:14.352Z,26.89
2022-08-23T23:20:41.048Z,26.80
2022-08-23T23:23:14.655Z,26.95
2022-08-23T23:25:43.223Z,26.90
2022-08-23T23:28:10.255Z,26.88
2022-08-23T23:30:37.078Z,26.79
2022-08-23T23:33:04.617Z,26.61
2022-08-23T23:35:31.537Z,26.68
2022-08-23T23:37:58.444Z,26.68
2022-08-23T23:40:26.766Z,26.68
2022-08-23T23:42:54.106Z,26.63
2022-08-23T23:45:21.199Z,26.64
2022-08-23T23:47:48.006Z,26.62
2022-08-23T23:50:15.014Z,26.56
2022-08-23T23:52:42.351Z,26.46
2022-08-23T23:55:12.156Z,26.52
2022-08-23T23:57:39.208Z,26.50
